x

Bw Pioneer Buoy - Walker Ridge 249 (42360) Wave Buoy

10:00am - Fri 22nd May 2015 All times are UTC.

  • Sig Wave height 1.3ft
  • Peak Period 5s
  • Wind
    7mph
  • Sea Temp 83°f
  • Sea Pressure 1017mb

More Historic Weather Station data

Upgrade to MSW Pro to gain access to the past 30 days of data for over 8000 Wavebouys and Weather Stations around the globe.

Join Pro

Comparision Forecast

View Surf forecast
   
Fri 05/22 10:00am 1.3ft 5s 7
mph
1017mb 83f
9:00am 1.3ft 5s 7 9 mph 1016.8mb 83f
8:00am 1.3ft 5s 7 9 mph 1016.5mb 83f
7:00am 1ft 6s 4 7 mph 1016.9mb 83f
6:00am 1ft 5s 4 7 mph 1017.4mb 84f
5:00am 1ft 4s 7
mph
1017.5mb -
4:00am 1.3ft 6s 7 9 mph 1017.4mb 84f
3:00am 1.3ft 6s 4 7 mph 1017.5mb 84f
2:00am 1.3ft 5s 4 7 mph 1016.9mb 84f
1:00am 1ft 6s 4 7 mph 1016.6mb 85f
12:00am 1.3ft 5s 2
mph
1016.4mb 85f
Thu 05/21 11:00pm 1.3ft 5s 2 4 mph 1016.1mb 84f
10:00pm 1.3ft 6s 2 4 mph 1016.3mb 85f
9:00pm 1.3ft 5s 4 7 mph 1016mb 84f
8:00pm 1ft 6s 2 4 mph 1016.8mb 84f
7:00pm 1.3ft 6s 4 7 mph 1016.9mb 84f
6:00pm 1.3ft 6s 4 7 mph 1017mb 84f
5:00pm 1.3ft 5s 4 9 mph 1017.5mb 83f
4:00pm 1.3ft 6s 2 4 mph 1017.7mb 83f
3:00pm 1.3ft 6s 4 7 mph 1017.4mb 83f
2:00pm 1.3ft 6s 4 7 mph 1017.4mb 83f
1:00pm 1.6ft 6s 4 7 mph 1017.2mb 83f
12:00pm 1.3ft 6s 4 7 mph 1016.9mb 83f
11:00am 1.6ft 6s 4 7 mph 1016.6mb 83f
10:00am 1.3ft 6s 4 7 mph 1016mb 83f
9:00am 1.6ft 6s 7 9 mph 1015.4mb 83f
8:00am 1.6ft 6s 7 9 mph 1015.6mb 83f
7:00am 1.6ft 5s 7 9 mph 1015.8mb 83f
6:00am 1.6ft 6s 7 9 mph 1016.4mb 83f
5:00am 1.6ft 5s 7 11 mph 1016.5mb 83f
4:00am 1.6ft 5s 9 11 mph 1016mb 83f
3:00am 1.6ft 5s 4 7 mph 1016.1mb 83f
2:00am 1.6ft 5s 2 4 mph 1015.8mb 83f
1:00am 1.6ft 5s 2 4 mph 1015.5mb 83f
12:00am 1.6ft 5s 4 7 mph 1015.2mb 84f
Wed 05/20 11:00pm 1.6ft 5s 4 7 mph 1015.2mb 84f
10:00pm 1.6ft 4s 7 9 mph 1015.3mb 84f
9:00pm 1.6ft 5s 7 9 mph 1015.4mb 84f
8:00pm 1.6ft 6s 7 9 mph 1015.9mb 83f
7:00pm 1.6ft 3s 9 11 mph 1015.9mb 83f
6:00pm 1.6ft 4s 9 13 mph 1016.3mb 83f
5:00pm 2ft 5s 9 11 mph 1016.8mb -
4:00pm  -   -  4 11 mph 1016.5mb 93f
3:00pm 1.3ft 5s 4 13 mph 1016.3mb 91f
1:00pm 1.6ft 7s 4 7 mph 1015.6mb 84f
12:00pm 1.6ft 6s  -  4 mph 1016mb 82f
11:00am 1.6ft 7s 4 7 mph 1014.7mb 81f
10:00am 1.6ft 6s 2 4 mph 1014.8mb 80f
9:00am 1.6ft 6s  -  4 mph 1014.7mb 81f
8:00am 1.6ft 6s  -  4 mph 1015.3mb 81f
7:00am 1.6ft 7s  -  4 mph 1015.5mb 81f
6:00am 1.6ft 6s 4 7 mph 1016.1mb 82f
5:00am 1.6ft 6s 4 7 mph 1016.4mb 82f
4:00am 1.6ft 6s 4 7 mph 1016.1mb 82f
3:00am  -   -  4 7 mph 1015.6mb 82f
1:00am 2.5ft 5s 2 4 mph 1016.1mb 83f
12:00am  -   -  2 4 mph 1016mb -
Tue 05/19 11:00pm 2ft 6s 7 11 mph 1016.3mb -
10:00pm 2.5ft 5s 7 9 mph 1016.6mb 93f
9:00pm  -   -   -  mph 1016.8mb -
Mon 05/18 5:00pm 3.5ft 5s 13 18 mph 1020.9mb 82f
4:00pm 4ft 5s 16 20 mph 1020.4mb 82f
3:00pm 4.5ft 6s 16 20 mph 1020.2mb 82f
2:00pm 4ft 7s 18 25 mph 1019.2mb 82f
1:00pm 4.5ft 7s 18 22 mph 1018.7mb 82f
12:00pm 4ft 6s 18 25 mph 1018.1mb 82f